Terminal Aerodrome Forecast
Issued by NWS

Home | Current Version | Previous Version | Text Only | Print | Product List | Glossary On
Versions: 1 2 3 4 5 6 7 8 9 10 11 12 13 14 15 16
000
FTUS43 KMPX 211700
TAFRNH
TAF
KRNH 211735Z 2118/2218 15010KT 1 1/2SM -RASN BR OVC005
     FM212200 16011KT 2SM -DZ BR OVC005
     FM220100 15012KT 3SM BR OVC004
     FM221100 13013KT 1 1/2SM -RASN BR OVC003=

USA.gov is the U.S. government's official web portal to all federal, state and local government web resources and services.